createdAt,value
2023-05-14T14:57:20.747Z,23.70
2023-05-14T14:59:48.455Z,24.09
2023-05-14T15:02:16.115Z,24.48
2023-05-14T15:04:43.823Z,24.76
2023-05-14T15:07:11.368Z,24.98
2023-05-14T15:09:38.767Z,25.00
2023-05-14T15:12:06.623Z,24.89
2023-05-14T15:14:34.128Z,24.68
2023-05-14T15:17:01.585Z,24.44
2023-05-14T15:19:29.782Z,24.21
2023-05-14T15:21:57.216Z,24.00
2023-05-14T15:24:26.446Z,23.79
2023-05-14T15:26:53.966Z,23.60
2023-05-14T15:29:21.404Z,23.42
2023-05-14T15:31:48.818Z,23.23
2023-05-14T15:34:16.414Z,23.06
2023-05-14T15:36:43.955Z,22.90
2023-05-14T15:39:11.372Z,22.75
2023-05-14T15:41:38.909Z,22.66
2023-05-14T15:44:06.405Z,22.63
2023-05-14T15:46:33.866Z,22.68
2023-05-14T15:49:02.372Z,22.72
2023-05-14T15:51:29.833Z,22.67
2023-05-14T15:53:57.571Z,22.58
2023-05-14T15:56:25.073Z,22.50
2023-05-14T15:58:52.407Z,22.41
2023-05-14T16:01:19.832Z,22.32
2023-05-14T16:03:47.789Z,22.21
2023-05-14T16:06:15.645Z,22.08
2023-05-14T16:08:43.077Z,21.92
2023-05-14T16:11:10.460Z,21.76
2023-05-14T16:13:39.374Z,21.61
2023-05-14T16:16:06.677Z,21.48
2023-05-14T16:18:34.211Z,21.36
2023-05-14T16:21:02.161Z,21.22
2023-05-14T16:23:29.614Z,21.10
2023-05-14T16:25:56.903Z,20.98
2023-05-14T16:28:24.509Z,20.86
2023-05-14T16:30:51.842Z,20.74
2023-05-14T16:33:19.209Z,20.58
2023-05-14T16:35:46.770Z,20.46
2023-05-14T16:38:14.131Z,20.35
2023-05-14T16:40:42.016Z,20.21
2023-05-14T16:43:09.369Z,20.06
2023-05-14T16:45:37.665Z,19.90
2023-05-14T16:48:05.208Z,19.77
2023-05-14T16:50:32.977Z,19.64
2023-05-14T16:53:00.394Z,19.51
2023-05-14T16:55:27.581Z,19.45
2023-05-14T16:57:54.904Z,19.37
2023-05-14T17:00:22.478Z,19.30
2023-05-14T17:02:51.334Z,19.25
2023-05-14T17:05:18.694Z,19.20
2023-05-14T17:07:46.022Z,19.15
2023-05-14T17:10:13.149Z,19.08
2023-05-14T17:12:40.495Z,18.98
2023-05-14T17:15:09.513Z,18.87
2023-05-14T17:17:36.757Z,18.76
2023-05-14T17:20:06.176Z,18.63
2023-05-14T17:22:33.655Z,18.48
2023-05-14T17:25:01.019Z,18.34
2023-05-14T17:27:29.917Z,18.18
2023-05-14T17:29:57.550Z,18.04
2023-05-14T17:32:29.755Z,17.90
2023-05-14T17:34:57.337Z,17.78
2023-05-14T17:37:24.940Z,17.63
2023-05-14T17:39:52.726Z,17.51
2023-05-14T17:42:20.259Z,17.35
2023-05-14T17:44:47.704Z,17.21
2023-05-14T17:47:15.185Z,17.12
2023-05-14T17:49:42.702Z,17.04
2023-05-14T17:52:10.188Z,16.94
2023-05-14T17:54:37.581Z,16.81
2023-05-14T17:57:05.221Z,16.62
2023-05-14T17:59:33.333Z,16.47
2023-05-14T18:02:01.246Z,16.36
2023-05-14T18:04:28.879Z,16.26
2023-05-14T18:06:57.068Z,16.20
2023-05-14T18:09:24.950Z,16.14
2023-05-14T18:11:53.064Z,16.06
2023-05-14T18:14:21.604Z,15.98
2023-05-14T18:16:48.921Z,15.93
2023-05-14T18:19:16.547Z,15.87
2023-05-14T18:21:46.696Z,15.76
2023-05-14T18:24:14.532Z,15.69
2023-05-14T18:26:44.280Z,15.58
2023-05-14T18:29:12.023Z,15.50
2023-05-14T18:31:39.355Z,15.42
2023-05-14T18:34:06.714Z,15.35
2023-05-14T18:36:34.263Z,15.30
2023-05-14T18:39:01.533Z,15.26
2023-05-14T18:41:29.100Z,15.22
2023-05-14T18:43:58.146Z,15.19
2023-05-14T18:46:26.284Z,15.15
2023-05-14T18:48:53.958Z,15.14
2023-05-14T18:51:21.690Z,15.14
2023-05-14T18:53:48.964Z,15.15
2023-05-14T18:56:18.545Z,15.15
2023-05-14T18:58:45.868Z,15.15
2023-05-14T19:01:13.366Z,15.14
2023-05-14T19:03:42.949Z,15.14
2023-05-14T19:06:10.567Z,15.14
2023-05-14T19:08:39.626Z,15.16
2023-05-14T19:11:07.049Z,15.17
2023-05-14T19:13:34.622Z,15.17
2023-05-14T19:16:02.102Z,15.17
2023-05-14T19:18:29.536Z,15.17
2023-05-14T19:20:57.310Z,15.17
2023-05-14T19:23:24.913Z,15.18
2023-05-14T19:25:52.297Z,15.19
2023-05-14T19:28:20.057Z,15.20
2023-05-14T19:30:48.026Z,15.21
2023-05-14T19:33:15.570Z,15.22
2023-05-14T19:35:42.972Z,15.22
2023-05-14T19:38:11.038Z,15.22
2023-05-14T19:40:38.359Z,15.23
2023-05-14T19:43:06.059Z,15.22
2023-05-14T19:45:39.407Z,15.24
2023-05-14T19:48:07.020Z,15.25
2023-05-14T19:50:36.994Z,15.25
2023-05-14T19:53:04.786Z,15.22
2023-05-14T19:55:32.194Z,15.21
2023-05-14T19:57:59.693Z,15.21
2023-05-14T20:00:27.463Z,15.20
2023-05-14T20:02:55.655Z,15.16
2023-05-14T20:05:23.203Z,15.10
2023-05-14T20:07:50.418Z,15.00
2023-05-14T20:10:17.824Z,14.89
2023-05-14T20:12:45.224Z,14.75
2023-05-14T20:15:12.620Z,14.59
2023-05-14T20:17:40.184Z,14.45
2023-05-14T20:20:09.996Z,14.31
2023-05-14T20:22:38.454Z,14.18
2023-05-14T20:25:07.548Z,14.03
2023-05-14T20:27:35.039Z,13.88
2023-05-14T20:30:02.489Z,13.73
2023-05-14T20:32:30.004Z,13.61
2023-05-14T20:35:02.247Z,13.49
2023-05-14T20:37:30.592Z,13.38
2023-05-14T20:39:57.895Z,13.29
2023-05-14T20:42:25.442Z,13.21
2023-05-14T20:44:53.372Z,13.12
2023-05-14T20:47:23.500Z,13.04
2023-05-14T20:49:51.339Z,12.96
2023-05-14T20:52:18.906Z,12.90
2023-05-14T20:54:46.437Z,12.83
2023-05-14T20:57:15.608Z,12.76
2023-05-14T20:59:43.043Z,12.67
2023-05-14T21:02:10.418Z,12.60
2023-05-14T21:04:38.103Z,12.53
2023-05-14T21:07:05.651Z,12.45
2023-05-14T21:09:32.976Z,12.39
2023-05-14T21:12:00.519Z,12.33
2023-05-14T21:14:27.913Z,12.27
2023-05-14T21:16:55.441Z,12.22
2023-05-14T21:19:23.526Z,12.17
2023-05-14T21:21:51.007Z,12.12
2023-05-14T21:24:19.301Z,12.07
2023-05-14T21:26:46.938Z,12.04
2023-05-14T21:29:14.305Z,12.01
2023-05-14T21:31:41.837Z,11.99
2023-05-14T21:34:09.409Z,11.98
2023-05-14T21:36:36.921Z,11.95
2023-05-14T21:39:04.378Z,11.92
2023-05-14T21:41:32.003Z,11.87
2023-05-14T21:43:59.248Z,11.82
2023-05-14T21:46:26.608Z,11.76
2023-05-14T21:48:54.149Z,11.70
2023-05-14T21:51:21.700Z,11.62
2023-05-14T21:53:49.036Z,11.56
2023-05-14T21:56:16.688Z,11.50
2023-05-14T21:58:44.514Z,11.46
2023-05-14T22:01:12.058Z,11.45
2023-05-14T22:03:39.550Z,11.44
2023-05-14T22:06:07.011Z,11.44
2023-05-14T22:08:34.458Z,11.42
2023-05-14T22:11:01.932Z,11.42
2023-05-14T22:13:29.369Z,11.41
2023-05-14T22:16:11.730Z,11.39
2023-05-14T22:18:40.325Z,11.36
2023-05-14T22:21:07.594Z,11.34
2023-05-14T22:23:34.932Z,11.31
2023-05-14T22:26:02.348Z,11.30
2023-05-14T22:28:29.868Z,11.30
2023-05-14T22:30:59.816Z,11.30
2023-05-14T22:33:27.456Z,11.29
2023-05-14T22:35:54.838Z,11.27
2023-05-14T22:38:22.152Z,11.25
2023-05-14T22:40:49.373Z,11.24
2023-05-14T22:43:16.705Z,11.23
2023-05-14T22:45:44.160Z,11.21
2023-05-14T22:48:12.131Z,11.19
2023-05-14T22:50:39.469Z,11.17
2023-05-14T22:53:06.975Z,11.13
2023-05-14T22:55:34.578Z,11.09
2023-05-14T22:58:02.074Z,11.04
2023-05-14T23:00:29.613Z,11.01
2023-05-14T23:02:57.095Z,10.98
2023-05-14T23:05:24.572Z,10.97
2023-05-14T23:07:52.969Z,10.95
2023-05-14T23:10:20.300Z,10.94
2023-05-14T23:12:47.551Z,10.93
2023-05-14T23:15:14.848Z,10.93
2023-05-14T23:17:42.226Z,10.95
2023-05-14T23:20:12.838Z,10.97
2023-05-14T23:22:40.562Z,11.00
2023-05-14T23:25:08.324Z,11.02
2023-05-14T23:27:35.810Z,11.04
2023-05-14T23:30:04.256Z,11.07
2023-05-14T23:32:31.579Z,11.08
2023-05-14T23:34:59.135Z,11.08
2023-05-14T23:37:26.376Z,11.06
2023-05-14T23:39:53.914Z,11.03
2023-05-14T23:42:21.515Z,11.00
2023-05-14T23:44:48.980Z,10.96
2023-05-14T23:47:16.329Z,10.91
2023-05-14T23:49:43.723Z,10.88
2023-05-14T23:52:11.579Z,10.84
2023-05-14T23:54:39.426Z,10.81
2023-05-14T23:57:06.693Z,10.79
2023-05-14T23:59:34.163Z,10.76
